createdAt,value
2023-11-18T00:00:13.854Z,61.40
2023-11-18T00:02:44.242Z,63.97
2023-11-18T00:05:12.364Z,70.70
2023-11-18T00:07:40.366Z,64.53
2023-11-18T00:10:09.755Z,64.00
2023-11-18T00:12:38.211Z,72.67
2023-11-18T00:15:06.353Z,62.53
2023-11-18T00:17:33.470Z,77.97
2023-11-18T00:20:00.833Z,71.20
2023-11-18T00:22:29.117Z,76.43
2023-11-18T00:24:56.262Z,73.10
2023-11-18T00:27:24.005Z,73.13
2023-11-18T00:29:51.091Z,66.87
2023-11-18T00:32:18.326Z,70.47
2023-11-18T00:34:45.918Z,66.63
2023-11-18T00:37:13.234Z,67.97
2023-11-18T00:39:40.919Z,77.87
2023-11-18T00:42:07.948Z,72.57
2023-11-18T00:44:35.503Z,68.70
2023-11-18T00:47:03.829Z,64.73
2023-11-18T00:49:31.313Z,78.93
2023-11-18T00:51:58.477Z,78.20
2023-11-18T00:54:25.570Z,74.93
2023-11-18T00:56:53.031Z,70.97
2023-11-18T00:59:20.060Z,69.33
2023-11-18T01:01:47.443Z,71.53
2023-11-18T01:04:14.624Z,69.23
2023-11-18T01:06:43.911Z,70.13
2023-11-18T01:09:11.071Z,62.10
2023-11-18T01:11:38.190Z,68.13
2023-11-18T01:14:05.283Z,65.10
2023-11-18T01:16:32.369Z,63.77
2023-11-18T01:19:00.667Z,63.37
2023-11-18T01:21:28.647Z,68.13
2023-11-18T01:23:56.405Z,62.43
2023-11-18T01:26:24.499Z,71.80
2023-11-18T01:28:51.771Z,80.40
2023-11-18T01:31:19.002Z,89.77
2023-11-18T01:33:47.902Z,85.07
2023-11-18T01:36:15.148Z,86.63
2023-11-18T01:38:42.284Z,87.60
2023-11-18T01:41:10.418Z,79.63
2023-11-18T01:43:37.957Z,75.03
2023-11-18T01:46:11.389Z,80.33
2023-11-18T01:48:40.618Z,103.47
2023-11-18T01:51:08.637Z,101.20
2023-11-18T01:53:41.129Z,87.63
2023-11-18T01:56:09.848Z,92.20
2023-11-18T01:58:38.269Z,99.10
2023-11-18T02:01:09.370Z,102.97
2023-11-18T02:03:37.392Z,107.07
2023-11-18T02:06:06.906Z,96.83
2023-11-18T02:08:36.471Z,93.70
2023-11-18T02:11:42.843Z,95.10
2023-11-18T02:14:17.335Z,91.50
2023-11-18T02:16:46.150Z,104.13
2023-11-18T02:19:22.932Z,104.77
2023-11-18T02:21:51.076Z,102.17
2023-11-18T02:24:31.781Z,91.63
2023-11-18T02:26:59.748Z,91.57
2023-11-18T02:29:37.729Z,93.03
2023-11-18T02:32:36.915Z,82.33
2023-11-18T02:35:36.419Z,84.80
2023-11-18T02:38:06.559Z,75.53
2023-11-18T02:40:42.405Z,78.37
2023-11-18T02:43:10.691Z,70.90
2023-11-18T02:45:38.867Z,77.00
2023-11-18T02:48:07.827Z,77.17
2023-11-18T02:50:36.966Z,78.57
2023-11-18T02:53:04.177Z,75.13
2023-11-18T02:55:31.918Z,78.13
2023-11-18T02:57:59.268Z,85.97
2023-11-18T03:00:26.355Z,73.43
2023-11-18T03:02:53.997Z,74.13
2023-11-18T03:05:22.391Z,78.67
2023-11-18T03:07:55.040Z,75.30
2023-11-18T03:10:23.464Z,73.87
2023-11-18T03:12:53.649Z,70.07
2023-11-18T03:15:23.733Z,72.53
2023-11-18T03:17:52.295Z,74.73
2023-11-18T03:20:24.164Z,70.90
2023-11-18T03:22:52.508Z,70.47
2023-11-18T03:25:23.274Z,81.83
2023-11-18T03:27:50.563Z,69.53
2023-11-18T03:30:18.440Z,76.17
2023-11-18T03:32:46.645Z,78.37
2023-11-18T03:35:14.570Z,71.87
2023-11-18T03:37:44.030Z,73.47
2023-11-18T03:40:14.465Z,66.70
2023-11-18T03:42:43.174Z,72.70
2023-11-18T03:45:11.300Z,83.70
2023-11-18T03:47:39.319Z,75.10
2023-11-18T03:50:09.536Z,77.07
2023-11-18T03:52:39.159Z,72.70
2023-11-18T03:55:07.129Z,71.90
2023-11-18T03:57:34.382Z,69.57
2023-11-18T04:00:01.644Z,73.37
2023-11-18T04:02:30.284Z,72.30
2023-11-18T04:04:57.806Z,83.27
2023-11-18T04:07:25.113Z,71.43
2023-11-18T04:09:52.522Z,77.43
2023-11-18T04:12:20.214Z,77.50
2023-11-18T04:14:47.300Z,74.63
2023-11-18T04:17:14.543Z,79.27
2023-11-18T04:19:42.630Z,85.17
2023-11-18T04:22:10.680Z,74.03
2023-11-18T04:24:37.706Z,72.23
2023-11-18T04:27:05.088Z,70.73
2023-11-18T04:29:32.367Z,76.30
2023-11-18T04:32:01.138Z,74.87
2023-11-18T04:34:28.510Z,73.67
2023-11-18T04:36:56.085Z,66.67
2023-11-18T04:39:23.774Z,66.83
2023-11-18T04:41:51.680Z,66.77
2023-11-18T04:44:19.051Z,66.13
2023-11-18T04:46:46.294Z,65.07
2023-11-18T04:49:13.736Z,65.60
2023-11-18T04:51:41.126Z,61.70
2023-11-18T04:54:09.129Z,66.40
2023-11-18T04:56:36.877Z,57.90
2023-11-18T04:59:07.799Z,62.50
2023-11-18T05:01:35.679Z,65.77
2023-11-18T05:04:02.976Z,60.63
2023-11-18T05:06:30.241Z,58.87
2023-11-18T05:08:57.714Z,55.80
2023-11-18T05:11:24.861Z,55.50
2023-11-18T05:13:52.043Z,52.37
2023-11-18T05:16:19.983Z,53.07
2023-11-18T05:18:47.151Z,52.87
2023-11-18T05:21:14.435Z,52.23
2023-11-18T05:23:41.651Z,54.67
2023-11-18T05:26:10.098Z,57.47
2023-11-18T05:28:37.603Z,51.67
2023-11-18T05:31:06.318Z,49.97
2023-11-18T05:33:35.661Z,51.07
2023-11-18T05:36:06.280Z,54.87
2023-11-18T05:38:36.698Z,52.67
2023-11-18T05:41:04.996Z,50.60
2023-11-18T05:43:39.570Z,49.47
2023-11-18T05:46:15.950Z,48.63
2023-11-18T05:48:45.108Z,50.77
2023-11-18T05:51:12.787Z,45.20
2023-11-18T05:53:46.873Z,50.97
2023-11-18T05:56:15.264Z,47.40
2023-11-18T05:58:44.544Z,44.17
2023-11-18T06:01:12.846Z,47.13
2023-11-18T06:03:41.192Z,48.37
2023-11-18T06:06:15.165Z,43.97
2023-11-18T06:08:43.104Z,41.23
2023-11-18T06:11:15.352Z,44.83
2023-11-18T06:13:53.522Z,42.87
2023-11-18T06:16:23.688Z,43.73
2023-11-18T06:18:54.317Z,37.33
2023-11-18T06:21:29.640Z,40.43
2023-11-18T06:23:57.287Z,42.03
2023-11-18T06:26:28.309Z,37.83
2023-11-18T06:28:57.066Z,35.87
2023-11-18T06:31:25.294Z,38.93
2023-11-18T06:33:53.447Z,34.03
2023-11-18T06:36:24.661Z,33.47
2023-11-18T06:38:54.064Z,34.97
2023-11-18T06:41:27.618Z,32.80
2023-11-18T06:44:00.777Z,34.03
2023-11-18T06:46:35.698Z,35.83
2023-11-18T06:49:08.208Z,32.73
2023-11-18T06:51:39.559Z,32.37
2023-11-18T06:54:11.483Z,30.37
2023-11-18T06:56:45.294Z,27.30
2023-11-18T06:59:14.812Z,29.67
2023-11-18T07:01:46.544Z,31.57
2023-11-18T07:04:15.910Z,30.27
2023-11-18T07:06:44.409Z,23.90
2023-11-18T07:09:14.897Z,28.33
2023-11-18T07:11:43.173Z,31.33
2023-11-18T07:14:16.244Z,28.93
2023-11-18T07:16:44.338Z,28.80
2023-11-18T07:19:18.867Z,23.10
2023-11-18T07:21:46.009Z,25.37
2023-11-18T07:24:13.487Z,23.73
2023-11-18T07:26:40.657Z,25.37
2023-11-18T07:29:10.880Z,28.27
2023-11-18T07:31:38.162Z,21.93
2023-11-18T07:34:06.961Z,20.33
2023-11-18T07:36:35.263Z,23.20
2023-11-18T07:39:04.933Z,20.27
2023-11-18T07:41:35.205Z,19.77
2023-11-18T07:44:03.111Z,24.10
2023-11-18T07:46:32.524Z,24.57
2023-11-18T07:49:02.726Z,19.53
2023-11-18T07:51:30.207Z,21.20
2023-11-18T07:53:57.852Z,15.80
2023-11-18T07:56:24.924Z,22.60
2023-11-18T07:58:53.517Z,18.73
2023-11-18T08:01:22.431Z,15.53
2023-11-18T08:03:52.101Z,16.90
2023-11-18T08:06:19.648Z,17.07
2023-11-18T08:08:48.976Z,15.80
2023-11-18T08:11:16.152Z,18.97
2023-11-18T08:13:44.644Z,17.80
2023-11-18T08:16:14.095Z,12.40
2023-11-18T08:18:41.916Z,17.63
2023-11-18T08:21:09.121Z,11.53
2023-11-18T08:23:37.224Z,17.73
2023-11-18T08:26:06.677Z,14.80
2023-11-18T08:28:34.108Z,16.53
2023-11-18T08:31:02.041Z,13.60
2023-11-18T08:33:30.201Z,22.77
2023-11-18T08:35:57.942Z,13.80
2023-11-18T08:38:25.497Z,14.57
2023-11-18T08:40:53.038Z,13.73
2023-11-18T08:43:22.342Z,20.43
2023-11-18T08:45:51.564Z,13.93
2023-11-18T08:48:19.658Z,14.53
2023-11-18T08:50:48.102Z,13.77
2023-11-18T08:53:19.239Z,12.60
2023-11-18T08:55:52.745Z,12.53
2023-11-18T08:58:20.803Z,15.00
2023-11-18T09:00:56.029Z,14.00
2023-11-18T09:03:26.321Z,15.37
2023-11-18T09:05:59.789Z,16.23
2023-11-18T09:08:36.120Z,12.87
2023-11-18T09:11:09.204Z,12.13
2023-11-18T09:13:37.098Z,17.33
2023-11-18T09:16:10.355Z,14.07
2023-11-18T09:18:43.704Z,13.40
2023-11-18T09:21:16.865Z,15.57
2023-11-18T09:23:45.866Z,13.23
2023-11-18T09:26:13.068Z,15.67
2023-11-18T09:28:40.184Z,17.07
2023-11-18T09:31:12.508Z,67.30
2023-11-18T09:33:46.229Z,15.17
2023-11-18T09:36:13.726Z,17.97
2023-11-18T09:38:42.427Z,21.97
2023-11-18T09:41:14.502Z,18.70
2023-11-18T09:43:47.428Z,17.07
2023-11-18T09:46:16.678Z,17.50
2023-11-18T09:48:51.010Z,16.33
2023-11-18T09:51:23.907Z,16.40
2023-11-18T09:53:54.098Z,14.43
2023-11-18T09:56:58.526Z,13.83
2023-11-18T09:59:45.788Z,15.77
2023-11-18T10:02:15.185Z,15.77
2023-11-18T10:04:43.457Z,11.70
2023-11-18T10:07:12.555Z,14.07
2023-11-18T10:09:40.693Z,15.70
2023-11-18T10:12:13.639Z,16.67
2023-11-18T10:14:45.145Z,10.67
2023-11-18T10:17:15.922Z,12.00
2023-11-18T10:20:14.084Z,18.00
2023-11-18T10:22:42.007Z,11.07
2023-11-18T10:25:09.366Z,15.03
2023-11-18T10:27:36.471Z,13.37
2023-11-18T10:30:20.314Z,14.50
2023-11-18T10:33:09.169Z,15.47
2023-11-18T10:35:37.261Z,13.03
2023-11-18T10:38:07.796Z,16.07
2023-11-18T10:40:38.601Z,12.47
2023-11-18T10:43:11.390Z,14.50
2023-11-18T10:45:45.135Z,12.40
2023-11-18T10:48:17.678Z,15.00
2023-11-18T10:50:51.147Z,9.47
2023-11-18T10:53:20.070Z,11.73
2023-11-18T10:55:47.532Z,17.37
2023-11-18T10:58:15.675Z,15.63
2023-11-18T11:01:01.623Z,17.63
2023-11-18T11:03:34.451Z,12.50
2023-11-18T11:06:05.623Z,10.60
2023-11-18T11:08:41.706Z,15.10
2023-11-18T11:11:11.116Z,12.27
2023-11-18T11:13:39.111Z,14.33
2023-11-18T11:16:11.739Z,13.53
2023-11-18T11:18:46.536Z,9.20
2023-11-18T11:21:29.298Z,11.27
2023-11-18T11:24:07.180Z,11.47
2023-11-18T11:27:05.631Z,10.97
2023-11-18T11:29:44.343Z,13.83
2023-11-18T11:32:25.982Z,12.63
2023-11-18T11:34:58.651Z,8.67
2023-11-18T11:37:28.434Z,15.47
2023-11-18T11:39:59.725Z,9.53
2023-11-18T11:42:28.529Z,9.47
2023-11-18T11:44:57.041Z,15.13
2023-11-18T11:47:29.281Z,15.17
2023-11-18T11:50:11.612Z,9.97
2023-11-18T11:52:49.077Z,9.20
2023-11-18T11:55:39.779Z,12.23
2023-11-18T11:58:27.393Z,8.70
2023-11-18T12:00:55.557Z,5.60
2023-11-18T12:03:23.989Z,10.47
2023-11-18T12:05:56.937Z,8.63
2023-11-18T12:08:24.736Z,13.37
2023-11-18T12:10:57.523Z,10.70
2023-11-18T12:13:27.546Z,7.97
2023-11-18T12:16:07.089Z,5.97
2023-11-18T12:18:37.853Z,8.37
2023-11-18T12:21:05.870Z,5.53
2023-11-18T12:23:36.080Z,11.60
2023-11-18T12:26:26.193Z,7.17
2023-11-18T12:28:55.005Z,7.63
2023-11-18T12:31:41.900Z,7.63
2023-11-18T12:34:10.279Z,6.60
2023-11-18T12:37:08.920Z,11.13
2023-11-18T12:40:14.562Z,10.87
2023-11-18T12:43:06.101Z,9.07
2023-11-18T12:46:28.809Z,5.10
2023-11-18T12:49:01.129Z,7.27
2023-11-18T12:51:28.645Z,6.83
2023-11-18T12:53:57.733Z,8.10
2023-11-18T12:56:25.238Z,6.60
2023-11-18T12:58:52.970Z,8.57
2023-11-18T13:01:20.561Z,5.77
2023-11-18T13:03:48.276Z,6.07
2023-11-18T13:06:16.232Z,7.47
2023-11-18T13:08:43.848Z,5.03
2023-11-18T13:11:17.599Z,5.23
2023-11-18T13:13:45.024Z,8.10
2023-11-18T13:16:15.909Z,7.70
2023-11-18T13:18:50.518Z,9.73
2023-11-18T13:21:19.986Z,5.83
2023-11-18T13:23:53.999Z,5.80
2023-11-18T13:26:22.229Z,5.13
2023-11-18T13:28:50.466Z,4.87
2023-11-18T13:31:18.754Z,7.23
2023-11-18T13:33:49.500Z,6.00
2023-11-18T13:36:17.024Z,4.50
2023-11-18T13:38:45.260Z,4.67
2023-11-18T13:41:14.494Z,5.63
2023-11-18T13:43:51.204Z,5.53
2023-11-18T13:46:22.952Z,4.83
2023-11-18T13:48:50.488Z,4.07
2023-11-18T13:51:20.606Z,5.43
2023-11-18T13:53:48.943Z,5.63
2023-11-18T13:56:16.942Z,5.47
2023-11-18T13:58:46.840Z,4.10
2023-11-18T14:01:14.073Z,2.47
2023-11-18T14:03:44.747Z,2.40
2023-11-18T14:06:12.192Z,1.60
2023-11-18T14:08:40.235Z,1.27
2023-11-18T14:11:15.172Z,1.97
2023-11-18T14:13:45.678Z,2.77
2023-11-18T14:16:13.993Z,2.13
2023-11-18T14:18:43.155Z,1.57
2023-11-18T14:21:11.055Z,2.07
2023-11-18T14:23:39.196Z,1.83
2023-11-18T14:26:09.054Z,3.03
2023-11-18T14:28:36.493Z,3.97
2023-11-18T14:31:05.593Z,1.87
2023-11-18T14:33:35.743Z,1.80
2023-11-18T14:36:03.229Z,1.50
2023-11-18T14:38:32.026Z,2.27
2023-11-18T14:40:59.914Z,5.00
2023-11-18T14:43:27.377Z,1.67
2023-11-18T14:45:54.616Z,1.63
2023-11-18T14:48:21.654Z,3.33
2023-11-18T14:50:49.226Z,2.17
2023-11-18T14:53:16.317Z,1.80
2023-11-18T14:55:44.631Z,1.97
2023-11-18T14:58:13.221Z,2.77
2023-11-18T15:00:40.888Z,2.80
2023-11-18T15:03:08.512Z,2.13
2023-11-18T15:05:36.153Z,1.87
2023-11-18T15:08:03.684Z,1.43
2023-11-18T15:10:30.838Z,2.83
2023-11-18T15:13:01.735Z,3.47
2023-11-18T15:15:35.965Z,16.47
2023-11-18T15:18:10.254Z,3.23
2023-11-18T15:20:38.508Z,3.87
2023-11-18T15:23:05.954Z,1.60
2023-11-18T15:25:33.415Z,1.33
2023-11-18T15:28:01.725Z,2.17
2023-11-18T15:30:30.309Z,1.87
2023-11-18T15:32:57.814Z,2.47
2023-11-18T15:35:25.102Z,3.73
2023-11-18T15:37:53.367Z,20.47
2023-11-18T15:40:20.827Z,15.73
2023-11-18T15:42:52.339Z,6.30
2023-11-18T15:45:27.778Z,34.70
2023-11-18T15:47:55.514Z,23.50
2023-11-18T15:50:22.968Z,13.30
2023-11-18T15:52:53.266Z,9.30
2023-11-18T15:55:22.342Z,17.17
2023-11-18T15:57:54.540Z,68.27
2023-11-18T16:00:26.142Z,30.07
2023-11-18T16:03:01.878Z,27.57
2023-11-18T16:05:35.926Z,24.70
2023-11-18T16:08:05.688Z,27.60
2023-11-18T16:10:33.608Z,11.53
2023-11-18T16:13:02.291Z,4.77
2023-11-18T16:15:31.521Z,3.80
2023-11-18T16:18:00.623Z,3.43
2023-11-18T16:20:34.604Z,3.77
2023-11-18T16:23:06.537Z,2.30
2023-11-18T16:25:37.539Z,2.07
2023-11-18T16:28:05.765Z,2.67
2023-11-18T16:30:34.035Z,2.10
2023-11-18T16:33:03.012Z,1.37
2023-11-18T16:35:31.303Z,2.23
2023-11-18T16:38:01.569Z,1.60
2023-11-18T16:40:29.845Z,2.67
2023-11-18T16:42:59.986Z,4.40
2023-11-18T16:45:28.106Z,3.43
2023-11-18T16:47:55.999Z,1.70
2023-11-18T16:50:25.924Z,2.40
2023-11-18T16:52:55.004Z,2.47
2023-11-18T16:55:22.882Z,2.30
2023-11-18T16:57:54.167Z,2.10
2023-11-18T17:00:26.547Z,1.70
2023-11-18T17:02:58.058Z,1.70
2023-11-18T17:05:31.221Z,1.97
2023-11-18T17:08:00.375Z,1.40
2023-11-18T17:10:28.240Z,1.90
2023-11-18T17:12:55.844Z,2.03
2023-11-18T17:15:23.144Z,2.20
2023-11-18T17:17:55.066Z,2.90
2023-11-18T17:20:22.877Z,3.57
2023-11-18T17:22:50.104Z,3.20
2023-11-18T17:25:18.123Z,3.50
2023-11-18T17:27:47.000Z,6.30
2023-11-18T17:30:17.437Z,4.37
2023-11-18T17:32:46.830Z,3.63
2023-11-18T17:35:17.808Z,3.43
2023-11-18T17:37:47.612Z,3.60
2023-11-18T17:40:17.097Z,3.53
2023-11-18T17:42:46.272Z,3.63
2023-11-18T17:45:14.581Z,3.33
2023-11-18T17:47:44.135Z,4.13
2023-11-18T17:50:18.577Z,7.07
2023-11-18T17:52:53.393Z,4.93
2023-11-18T17:55:20.514Z,5.10
2023-11-18T17:57:47.985Z,5.17
2023-11-18T18:00:24.633Z,5.27
2023-11-18T18:02:53.227Z,6.27
2023-11-18T18:05:21.514Z,5.77
2023-11-18T18:07:49.037Z,5.77
2023-11-18T18:10:17.011Z,6.60
2023-11-18T18:12:47.845Z,6.80
2023-11-18T18:15:15.245Z,5.97
2023-11-18T18:17:42.497Z,7.03
2023-11-18T18:20:11.093Z,6.33
2023-11-18T18:22:40.116Z,7.10
2023-11-18T18:25:08.472Z,7.93
2023-11-18T18:27:35.646Z,22.60
2023-11-18T18:30:03.939Z,15.77
2023-11-18T18:32:31.476Z,46.63
2023-11-18T18:34:59.492Z,16.10
2023-11-18T18:37:27.695Z,16.03
2023-11-18T18:39:57.117Z,21.40
2023-11-18T18:42:25.615Z,14.60
2023-11-18T18:44:55.576Z,14.17
2023-11-18T18:47:23.391Z,10.57
2023-11-18T18:49:51.108Z,12.50
2023-11-18T18:52:18.296Z,14.23
2023-11-18T18:54:46.385Z,20.63
2023-11-18T18:57:13.915Z,24.07
2023-11-18T18:59:42.525Z,22.70
2023-11-18T19:02:11.133Z,13.13
2023-11-18T19:04:38.434Z,12.00
2023-11-18T19:07:05.617Z,19.50
2023-11-18T19:09:33.094Z,10.47
2023-11-18T19:12:00.330Z,11.00
2023-11-18T19:14:27.652Z,9.00
2023-11-18T19:16:54.749Z,9.97
2023-11-18T19:19:22.269Z,8.23
2023-11-18T19:21:52.519Z,8.70
2023-11-18T19:24:20.817Z,10.37
2023-11-18T19:26:49.193Z,11.23
2023-11-18T19:29:16.634Z,9.10
2023-11-18T19:31:43.842Z,8.73
2023-11-18T19:34:11.603Z,11.13
2023-11-18T19:36:39.216Z,10.00
2023-11-18T19:39:08.819Z,12.67
2023-11-18T19:41:35.946Z,14.73
2023-11-18T19:44:05.461Z,12.47
2023-11-18T19:46:32.938Z,12.33
2023-11-18T19:49:01.504Z,11.67
2023-11-18T19:51:28.704Z,11.23
2023-11-18T19:53:55.772Z,11.03
2023-11-18T19:56:24.409Z,10.03
2023-11-18T19:58:51.694Z,11.77
2023-11-18T20:01:19.646Z,11.75
2023-11-18T20:03:47.943Z,13.45
2023-11-18T20:06:15.282Z,14.60
2023-11-18T20:08:42.655Z,14.67
2023-11-18T20:11:13.244Z,14.47
2023-11-18T20:13:40.743Z,13.77
2023-11-18T20:16:10.553Z,17.53
2023-11-18T20:18:38.610Z,16.77
2023-11-18T20:21:06.722Z,20.17
2023-11-18T20:23:34.143Z,18.50
2023-11-18T20:26:01.779Z,13.23
2023-11-18T20:28:29.144Z,18.70
2023-11-18T20:30:56.151Z,25.30
2023-11-18T20:33:23.386Z,21.38
2023-11-18T20:35:50.757Z,17.67
2023-11-18T20:38:18.167Z,27.23
2023-11-18T20:40:45.778Z,21.30
2023-11-18T20:43:12.853Z,19.65
2023-11-18T20:45:41.452Z,17.67
2023-11-18T20:48:09.322Z,17.73
2023-11-18T20:50:37.160Z,21.70
2023-11-18T20:53:05.536Z,18.10
2023-11-18T20:55:33.239Z,17.80
2023-11-18T20:58:03.163Z,17.83
2023-11-18T21:00:31.568Z,20.90
2023-11-18T21:02:59.096Z,19.80
2023-11-18T21:05:26.626Z,17.50
2023-11-18T21:07:54.036Z,16.43
2023-11-18T21:10:21.543Z,16.83
2023-11-18T21:12:49.248Z,14.60
2023-11-18T21:15:17.853Z,18.17
2023-11-18T21:17:45.103Z,15.05
2023-11-18T21:20:14.210Z,15.13
2023-11-18T21:22:43.161Z,16.23
2023-11-18T21:25:13.493Z,13.90
2023-11-18T21:27:41.113Z,12.77
2023-11-18T21:30:11.752Z,13.13
2023-11-18T21:32:48.664Z,18.57
2023-11-18T21:35:21.435Z,11.57
2023-11-18T21:37:49.049Z,13.40
2023-11-18T21:40:16.111Z,13.67
2023-11-18T21:42:47.525Z,14.63
2023-11-18T21:45:17.404Z,13.50
2023-11-18T21:47:46.400Z,12.77
2023-11-18T21:50:17.574Z,12.47
2023-11-18T21:52:45.425Z,16.15
2023-11-18T21:55:14.336Z,15.60
2023-11-18T21:57:42.993Z,17.60
2023-11-18T22:00:17.826Z,20.13
2023-11-18T22:02:49.419Z,16.98
2023-11-18T22:05:19.842Z,17.83
2023-11-18T22:07:47.610Z,17.25
2023-11-18T22:10:17.895Z,16.05
2023-11-18T22:12:45.266Z,15.13
2023-11-18T22:15:18.272Z,16.52
2023-11-18T22:17:46.572Z,15.68
2023-11-18T22:20:16.076Z,16.80
2023-11-18T22:22:43.851Z,21.38
2023-11-18T22:25:11.468Z,17.23
2023-11-18T22:27:41.575Z,17.42
2023-11-18T22:30:13.448Z,16.25
2023-11-18T22:32:41.592Z,15.20
2023-11-18T22:35:10.151Z,17.37
2023-11-18T22:37:37.342Z,13.32
2023-11-18T22:40:10.831Z,14.93
2023-11-18T22:42:40.519Z,14.30
2023-11-18T22:45:17.309Z,15.38
2023-11-18T22:47:53.291Z,12.93
2023-11-18T22:50:24.659Z,12.48
2023-11-18T22:52:54.331Z,11.85
2023-11-18T22:55:21.489Z,13.98
2023-11-18T22:57:48.705Z,12.65
2023-11-18T23:00:33.172Z,12.35
2023-11-18T23:03:01.284Z,13.75
2023-11-18T23:05:28.605Z,11.45
2023-11-18T23:07:59.214Z,14.43
2023-11-18T23:10:26.858Z,11.23
2023-11-18T23:12:56.066Z,12.18
2023-11-18T23:15:25.812Z,14.63
2023-11-18T23:17:53.506Z,13.27
2023-11-18T23:20:22.378Z,12.80
2023-11-18T23:22:51.707Z,12.07
2023-11-18T23:25:23.975Z,10.45
2023-11-18T23:28:01.016Z,12.73
2023-11-18T23:30:29.624Z,11.25
2023-11-18T23:32:57.039Z,7.72
2023-11-18T23:35:24.109Z,12.57
2023-11-18T23:37:55.362Z,11.82
2023-11-18T23:40:24.010Z,10.55
2023-11-18T23:42:52.095Z,10.77
2023-11-18T23:45:20.497Z,12.27
2023-11-18T23:47:52.345Z,8.68
2023-11-18T23:50:21.075Z,12.55
2023-11-18T23:52:48.660Z,9.45
2023-11-18T23:55:16.162Z,11.23
2023-11-18T23:57:44.094Z,12.05
